Time;durP1;ratioP1;P1;durP2;ratioP2;P2;SDS_P1;SDS_P2;PMS_P1;PMS_P2;Temp;Humidity;BMP_temperature;BMP_pressure;BME280_temperature;BME280_humidity;BME280_pressure;Samples;Min_cycle;Max_cycle;Signal;HPM_P1;HPM_P2
2023/03/13 00:01:16;;;;;;;21.57;3.53;;;10.40;99.90;;;;;;5052794;28;20051;-54
2023/03/13 00:03:42;;;;;;;24.80;3.70;;;10.40;99.90;;;;;;5052444;28;20112;-53
2023/03/13 00:06:09;;;;;;;21.80;3.93;;;10.40;99.90;;;;;;5052299;28;20154;-52
2023/03/13 00:08:35;;;;;;;16.60;2.90;;;10.40;99.90;;;;;;5052392;28;20033;-54
2023/03/13 00:11:09;;;;;;;20.40;3.27;;;10.40;99.90;;;;;;5052832;28;20040;-55
2023/03/13 00:13:36;;;;;;;19.07;3.60;;;10.40;99.90;;;;;;5052278;28;20029;-56
2023/03/13 00:16:06;;;;;;;25.27;3.93;;;10.30;99.90;;;;;;5052248;28;20112;-53
2023/03/13 00:18:32;;;;;;;20.90;3.70;;;10.20;99.90;;;;;;5052291;28;20040;-54
2023/03/13 00:21:00;;;;;;;16.57;3.17;;;10.20;99.90;;;;;;5052214;28;20033;-56
2023/03/13 00:23:26;;;;;;;17.30;3.40;;;10.10;99.90;;;;;;5052173;28;20029;-54
2023/03/13 00:26:03;;;;;;;24.00;4.70;;;10.10;99.90;;;;;;5052190;28;20025;-55
2023/03/13 00:28:31;;;;;;;18.47;3.90;;;10.10;99.90;;;;;;5051919;28;20104;-55
2023/03/13 00:31:11;;;;;;;19.10;3.43;;;10.10;99.90;;;;;;5034122;28;20489;-54
2023/03/13 00:33:40;;;;;;;23.20;3.30;;;10.10;99.90;;;;;;5052124;28;20091;-55
2023/03/13 00:36:11;;;;;;;18.80;3.40;;;10.10;99.90;;;;;;5052129;28;20029;-53
2023/03/13 00:38:37;;;;;;;21.03;3.90;;;10.10;99.90;;;;;;5052199;28;20036;-53
2023/03/13 00:41:05;;;;;;;24.93;3.97;;;10.10;99.90;;;;;;5033671;28;20037;-55
2023/03/13 00:43:32;;;;;;;22.13;3.03;;;10.10;99.90;;;;;;5051726;28;20101;-55
2023/03/13 00:45:59;;;;;;;17.33;3.20;;;10.10;99.90;;;;;;5034048;28;20048;-54
2023/03/13 00:48:25;;;;;;;18.77;3.93;;;10.00;99.90;;;;;;5050098;28;20040;-54
2023/03/13 00:50:51;;;;;;;16.63;3.60;;;10.00;99.90;;;;;;5033709;28;20035;-52
2023/03/13 00:53:17;;;;;;;22.53;4.83;;;10.00;99.90;;;;;;5051694;28;20032;-53
2023/03/13 00:55:55;;;;;;;24.07;4.50;;;10.00;99.90;;;;;;5030441;28;20083;-54
2023/03/13 00:58:21;;;;;;;20.77;3.67;;;10.00;99.90;;;;;;5046411;28;20052;-54
2023/03/13 01:00:47;;;;;;;23.23;3.87;;;9.90;99.90;;;;;;5051650;28;20108;-52
2023/03/13 01:03:13;;;;;;;19.17;3.17;;;9.90;99.90;;;;;;5033663;28;20115;-53
2023/03/13 01:05:40;;;;;;;17.60;3.20;;;9.80;99.90;;;;;;5051319;28;20083;-52
2023/03/13 01:08:05;;;;;;;18.00;3.33;;;9.80;99.90;;;;;;5033372;28;20029;-53
2023/03/13 01:10:31;;;;;;;27.53;4.37;;;9.70;99.90;;;;;;5051529;28;20025;-55
2023/03/13 01:12:57;;;;;;;22.10;3.90;;;9.70;99.90;;;;;;5051438;28;20521;-55
2023/03/13 01:15:23;;;;;;;19.43;3.10;;;9.60;99.90;;;;;;5050502;28;20028;-53
2023/03/13 01:17:49;;;;;;;17.47;3.90;;;9.50;99.90;;;;;;5049394;28;20482;-52
2023/03/13 01:20:15;;;;;;;27.87;4.10;;;9.50;99.90;;;;;;5050680;28;20405;-53
2023/03/13 01:22:40;;;;;;;24.37;3.60;;;9.40;99.90;;;;;;5051027;28;20031;-52
2023/03/13 01:25:07;;;;;;;21.40;4.60;;;9.30;99.90;;;;;;5031483;28;20029;-53
2023/03/13 01:27:33;;;;;;;16.83;3.03;;;9.30;99.90;;;;;;5050546;28;20028;-53
2023/03/13 01:29:59;;;;;;;23.97;3.77;;;9.20;99.90;;;;;;5033142;28;20116;-53
2023/03/13 01:32:25;;;;;;;20.13;3.50;;;9.20;99.90;;;;;;5032856;28;20029;-54
2023/03/13 01:34:51;;;;;;;17.07;3.33;;;9.20;99.90;;;;;;5032960;28;20493;-53
2023/03/13 01:37:17;;;;;;;25.97;4.23;;;9.20;99.90;;;;;;5032693;28;20127;-55
2023/03/13 01:39:42;;;;;;;26.70;4.37;;;9.20;99.90;;;;;;5029576;28;20040;-54
2023/03/13 01:42:08;;;;;;;22.23;3.87;;;9.20;99.90;;;;;;5046802;28;20060;-55
2023/03/13 01:44:56;;;;;;;22.97;4.07;;;9.20;99.90;;;;;;5032792;28;20032;-54
2023/03/13 01:47:23;;;;;;;28.98;4.35;;;9.10;99.90;;;;;;5028984;28;20021;-54
2023/03/13 01:49:57;;;;;;;22.20;3.67;;;9.10;99.90;;;;;;5014709;28;20037;-54
2023/03/13 01:52:48;;;;;;;25.53;3.63;;;9.10;99.90;;;;;;5037631;28;20190;-54
2023/03/13 01:55:19;;;;;;;23.00;3.60;;;9.10;99.90;;;;;;5019343;28;20033;-54
2023/03/13 01:57:51;;;;;;;20.52;3.38;;;9.10;99.90;;;;;;5045724;28;20577;-55
2023/03/13 02:00:28;;;;;;;21.33;3.80;;;9.10;99.90;;;;;;5048633;28;20486;-52
2023/03/13 02:02:58;;;;;;;22.63;4.67;;;9.20;99.90;;;;;;5050428;28;20033;-53
2023/03/13 02:05:26;;;;;;;24.43;4.57;;;9.20;99.90;;;;;;5029160;28;20434;-54
2023/03/13 02:08:20;;;;;;;23.57;4.20;;;9.20;99.90;;;;;;5030338;28;20060;-55
2023/03/13 02:10:55;;;;;;;14.97;4.13;;;9.20;99.90;;;;;;5032650;28;20389;-54
2023/03/13 02:13:21;;;;;;;21.83;4.13;;;9.20;99.90;;;;;;5032208;28;20106;-53
2023/03/13 02:15:47;;;;;;;24.70;4.60;;;9.20;99.90;;;;;;5028854;28;20028;-53
2023/03/13 02:18:15;;;;;;;25.87;4.07;;;9.20;99.90;;;;;;5031352;28;20036;-53
2023/03/13 02:20:41;;;;;;;22.83;3.63;;;9.20;99.90;;;;;;5049667;28;20100;-54
2023/03/13 02:23:26;;;;;;;29.23;4.70;;;9.20;99.90;;;;;;5032386;28;20037;-54
2023/03/13 02:25:53;;;;;;;22.47;4.37;;;9.20;99.90;;;;;;5032308;28;20029;-55
2023/03/13 02:28:32;;;;;;;30.67;4.70;;;9.20;99.90;;;;;;5032241;28;20394;-54
2023/03/13 02:30:58;;;;;;;22.23;3.97;;;9.20;99.90;;;;;;5028767;28;20025;-54
2023/03/13 02:33:29;;;;;;;26.10;3.63;;;9.20;99.90;;;;;;5032118;28;20123;-54
2023/03/13 02:35:55;;;;;;;27.33;4.17;;;9.30;99.90;;;;;;5050270;28;20091;-55
2023/03/13 02:38:28;;;;;;;22.70;4.70;;;9.30;99.90;;;;;;5028723;28;20028;-55
2023/03/13 02:40:56;;;;;;;22.17;4.10;;;9.20;99.90;;;;;;5032351;28;20128;-54
2023/03/13 02:43:29;;;;;;;22.37;3.77;;;9.30;99.90;;;;;;5032132;28;20025;-53
2023/03/13 02:46:16;;;;;;;22.77;4.03;;;9.30;99.90;;;;;;5032357;28;20033;-53
2023/03/13 02:48:49;;;;;;;21.03;4.90;;;9.30;99.90;;;;;;5031777;28;20028;-55
2023/03/13 02:51:21;;;;;;;22.77;3.90;;;9.40;99.90;;;;;;5032265;28;20037;-54
2023/03/13 02:53:49;;;;;;;24.90;4.23;;;9.40;99.90;;;;;;5028841;28;20060;-55
2023/03/13 02:56:18;;;;;;;21.87;3.83;;;9.40;99.90;;;;;;5014456;28;20045;-55
2023/03/13 02:58:44;;;;;;;20.65;3.70;;;9.40;99.90;;;;;;5045138;28;20513;-53
2023/03/13 03:01:10;;;;;;;16.20;3.27;;;9.50;99.90;;;;;;5012286;28;20064;-52
2023/03/13 03:03:38;;;;;;;17.60;3.33;;;9.50;99.90;;;;;;5045066;28;20037;-53
2023/03/13 03:06:05;;;;;;;20.00;2.97;;;9.50;99.90;;;;;;5043931;28;20031;-53
2023/03/13 03:08:32;;;;;;;14.10;3.23;;;9.60;99.90;;;;;;5031668;28;20025;-54
2023/03/13 03:10:58;;;;;;;17.40;2.97;;;9.60;99.90;;;;;;5032872;28;20025;-54
2023/03/13 03:13:25;;;;;;;16.97;2.90;;;9.70;99.90;;;;;;5035724;28;20033;-54
2023/03/13 03:15:51;;;;;;;19.80;3.60;;;9.70;99.90;;;;;;5053200;28;20117;-54
2023/03/13 03:18:17;;;;;;;13.83;3.13;;;9.80;99.90;;;;;;5035390;28;20554;-55
2023/03/13 03:20:42;;;;;;;13.20;2.83;;;9.80;99.90;;;;;;5052963;28;20534;-54
2023/03/13 03:23:08;;;;;;;15.50;2.20;;;9.80;99.90;;;;;;5031979;28;20551;-55
2023/03/13 03:25:34;;;;;;;14.20;2.67;;;9.80;99.90;;;;;;5032602;28;20040;-58
2023/03/13 03:28:00;;;;;;;10.67;2.67;;;9.90;99.90;;;;;;5052983;28;20155;-53
2023/03/13 03:30:26;;;;;;;12.70;2.90;;;9.90;99.90;;;;;;5031998;28;20610;-55
2023/03/13 03:32:52;;;;;;;14.53;2.20;;;9.90;99.90;;;;;;5041401;28;20116;-56
2023/03/13 03:35:20;;;;;;;12.37;2.50;;;10.00;99.90;;;;;;5034955;28;20036;-52
2023/03/13 03:37:46;;;;;;;10.40;2.10;;;10.00;99.90;;;;;;5053096;28;20040;-53
2023/03/13 03:40:12;;;;;;;13.17;2.10;;;10.00;99.90;;;;;;5035280;28;20029;-54
2023/03/13 03:42:38;;;;;;;9.00;2.20;;;10.00;99.90;;;;;;5035068;28;20488;-56
2023/03/13 03:45:05;;;;;;;8.47;2.20;;;10.00;99.90;;;;;;5035037;28;20029;-52
2023/03/13 03:47:30;;;;;;;9.93;1.77;;;10.10;99.90;;;;;;5052618;28;20025;-55
2023/03/13 03:49:57;;;;;;;9.23;1.87;;;10.10;99.90;;;;;;5035135;28;20025;-53
2023/03/13 03:52:23;;;;;;;10.60;1.97;;;10.10;99.90;;;;;;5032459;28;20108;-53
2023/03/13 03:54:49;;;;;;;8.23;1.90;;;10.10;99.90;;;;;;5034918;28;20033;-56
2023/03/13 03:57:16;;;;;;;12.60;2.10;;;10.00;99.90;;;;;;5034686;28;20429;-56
2023/03/13 03:59:43;;;;;;;6.17;1.93;;;10.10;99.90;;;;;;5052846;28;20490;-54
2023/03/13 04:02:10;;;;;;;8.37;2.10;;;10.10;99.90;;;;;;5032832;28;20040;-54
2023/03/13 04:04:36;;;;;;;8.17;1.50;;;10.10;99.90;;;;;;5034645;28;20056;-54
2023/03/13 04:07:17;;;;;;;8.50;1.60;;;10.10;99.90;;;;;;5031200;28;20036;-54
2023/03/13 04:09:43;;;;;;;5.73;1.83;;;10.20;99.90;;;;;;5049909;28;20389;-53
2023/03/13 04:12:14;;;;;;;6.27;1.57;;;10.30;99.90;;;;;;5031346;28;20037;-53
2023/03/13 04:14:44;;;;;;;6.27;1.60;;;10.30;99.90;;;;;;5028587;28;20503;-55
2023/03/13 04:17:11;;;;;;;5.00;1.50;;;10.30;99.90;;;;;;5032794;28;20125;-56
2023/03/13 04:19:38;;;;;;;7.53;1.47;;;10.30;99.90;;;;;;5024903;28;20485;-55
2023/03/13 04:22:03;;;;;;;7.83;1.83;;;10.40;99.90;;;;;;5027727;28;20029;-54
2023/03/13 04:24:29;;;;;;;5.80;1.40;;;10.50;99.90;;;;;;5028029;28;20032;-54
2023/03/13 04:26:56;;;;;;;4.67;1.53;;;10.50;99.90;;;;;;5032647;28;20036;-52
2023/03/13 04:29:21;;;;;;;3.20;1.47;;;10.60;99.90;;;;;;5031238;28;20025;-53
2023/03/13 04:31:57;;;;;;;6.50;1.87;;;10.60;99.90;;;;;;5032324;28;20170;-52
2023/03/13 04:34:23;;;;;;;3.70;1.70;;;10.70;99.90;;;;;;5050014;28;20115;-50
2023/03/13 04:37:09;;;;;;;9.40;4.97;;;10.80;99.90;;;;;;5048698;28;20044;-54
2023/03/13 04:39:53;;;;;;;4.87;2.10;;;10.80;99.90;;;;;;5048080;28;20135;-54
2023/03/13 04:42:36;;;;;;;5.27;2.00;;;10.90;99.90;;;;;;5029451;28;20052;-53
2023/03/13 04:45:26;;;;;;;4.97;2.45;;;11.00;99.90;;;;;;5035295;28;20028;-51
2023/03/13 04:47:55;;;;;;;6.27;2.83;;;11.00;99.90;;;;;;5045364;28;20049;-50
2023/03/13 04:50:30;;;;;;;3.97;2.00;;;11.10;99.90;;;;;;5047009;28;20036;-50
2023/03/13 04:53:13;;;;;;;7.43;3.13;;;11.20;99.90;;;;;;5028155;28;20056;-50
2023/03/13 04:55:48;;;;;;;6.30;2.80;;;11.30;99.90;;;;;;5028609;28;20029;-51
2023/03/13 04:58:33;;;;;;;5.73;2.63;;;11.40;99.90;;;;;;5046340;28;20047;-49
2023/03/13 05:01:21;;;;;;;9.25;3.63;;;11.50;99.90;;;;;;5048651;28;20041;-49
2023/03/13 05:04:13;;;;;;;7.30;3.80;;;11.60;99.90;;;;;;5024417;28;20064;-51
2023/03/13 05:06:56;;;;;;;4.80;2.70;;;11.70;99.90;;;;;;5031526;28;20025;-53
2023/03/13 05:09:56;;;;;;;6.13;3.13;;;11.70;99.90;;;;;;5028985;28;20413;-53
2023/03/13 05:12:41;;;;;;;6.77;3.10;;;11.80;99.90;;;;;;5031894;28;20511;-53
2023/03/13 05:15:26;;;;;;;10.80;3.70;;;11.80;99.90;;;;;;5031775;28;20398;-51
2023/03/13 05:18:12;;;;;;;11.93;6.07;;;11.80;99.90;;;;;;5031671;28;20041;-53
2023/03/13 05:20:47;;;;;;;13.93;5.57;;;11.80;99.90;;;;;;5049428;28;20525;-53
2023/03/13 05:23:33;;;;;;;11.80;4.87;;;11.80;99.90;;;;;;5048451;28;20110;-53
2023/03/13 05:26:17;;;;;;;11.90;4.47;;;11.80;99.90;;;;;;5049485;28;20094;-52
2023/03/13 05:28:56;;;;;;;20.55;12.70;;;11.90;99.90;;;;;;5031500;28;20479;-50
2023/03/13 05:31:31;;;;;;;8.20;4.30;;;11.90;99.90;;;;;;5043293;28;20616;-52
2023/03/13 05:34:09;;;;;;;8.38;4.88;;;11.90;99.90;;;;;;5046679;28;20213;-52
2023/03/13 05:36:50;;;;;;;6.33;3.93;;;11.90;99.90;;;;;;5047464;28;20580;-47
2023/03/13 05:39:34;;;;;;;6.27;2.90;;;11.90;99.90;;;;;;5048825;28;20670;-51
2023/03/13 05:42:32;;;;;;;4.70;2.63;;;11.90;99.90;;;;;;5015112;28;20040;-50
2023/03/13 05:45:03;;;;;;;6.53;2.83;;;12.00;99.90;;;;;;5049141;28;20034;-51
2023/03/13 05:47:45;;;;;;;6.57;3.73;;;11.90;99.90;;;;;;5047496;28;20417;-53
2023/03/13 05:50:29;;;;;;;5.40;3.40;;;12.00;99.90;;;;;;5049355;28;20044;-52
2023/03/13 05:53:27;;;;;;;5.77;2.43;;;11.90;99.90;;;;;;5003509;28;20045;-52
2023/03/13 05:56:16;;;;;;;4.55;2.45;;;11.90;99.90;;;;;;5038091;28;20037;-50
2023/03/13 05:58:59;;;;;;;5.23;2.30;;;12.10;99.90;;;;;;5049124;28;20060;-52
2023/03/13 06:01:36;;;;;;;4.70;2.50;;;12.10;99.90;;;;;;5031167;28;20059;-50
2023/03/13 06:04:14;;;;;;;4.15;2.40;;;12.20;99.90;;;;;;5030891;28;20075;-49
2023/03/13 06:06:41;;;;;;;5.73;2.67;;;12.20;99.90;;;;;;5030266;28;20061;-52
2023/03/13 06:09:07;;;;;;;5.00;2.50;;;12.20;99.90;;;;;;5030464;28;20060;-52
2023/03/13 06:11:33;;;;;;;5.37;2.30;;;12.30;99.90;;;;;;5031222;28;20497;-51
2023/03/13 06:13:59;;;;;;;5.23;2.73;;;12.30;99.90;;;;;;5030605;28;20124;-50
2023/03/13 06:16:54;;;;;;;6.80;2.53;;;12.30;99.90;;;;;;5045296;28;20037;-49
2023/03/13 06:19:23;;;;;;;5.23;2.07;;;12.30;99.90;;;;;;5030537;28;20039;-50
2023/03/13 06:21:49;;;;;;;3.70;2.00;;;12.30;99.90;;;;;;5087655;22;20057;-57
2023/03/13 06:24:14;;;;;;;6.03;2.10;;;12.40;99.90;;;;;;5108473;28;20028;-56
2023/03/13 06:26:40;;;;;;;7.37;2.60;;;12.40;99.90;;;;;;5109373;28;20034;-57
2023/03/13 06:29:06;;;;;;;4.40;2.00;;;12.40;99.90;;;;;;5109148;28;20115;-58
2023/03/13 06:31:32;;;;;;;4.27;1.70;;;12.50;99.90;;;;;;5095298;28;20110;-57
2023/03/13 06:33:58;;;;;;;3.77;1.80;;;12.50;99.90;;;;;;5070677;28;20108;-58
2023/03/13 06:36:24;;;;;;;4.00;1.80;;;12.60;99.90;;;;;;5088576;28;20492;-57
2023/03/13 06:38:50;;;;;;;4.30;1.90;;;12.60;99.90;;;;;;5088491;28;20081;-57
2023/03/13 06:41:16;;;;;;;6.53;1.80;;;12.60;99.90;;;;;;5089096;28;20032;-57
2023/03/13 06:43:42;;;;;;;4.07;1.92;;;12.60;99.90;;;;;;5088705;28;20174;-57
2023/03/13 06:46:20;;;;;;;5.50;1.93;;;12.70;99.90;;;;;;5091645;28;20059;-58
2023/03/13 06:48:47;;;;;;;3.70;1.70;;;12.70;99.90;;;;;;5090692;28;20024;-58
2023/03/13 06:51:14;;;;;;;3.97;1.77;;;12.80;99.90;;;;;;5091883;28;20080;-58
2023/03/13 06:53:40;;;;;;;4.27;1.77;;;12.80;99.90;;;;;;5091922;28;20498;-58
2023/03/13 06:56:09;;;;;;;6.60;2.43;;;12.80;99.90;;;;;;5092692;28;20031;-57
2023/03/13 06:58:35;;;;;;;6.32;2.15;;;12.80;99.90;;;;;;5091695;28;20508;-58
2023/03/13 07:01:09;;;;;;;6.72;2.20;;;12.90;99.90;;;;;;5092542;28;20504;-58
2023/03/13 07:03:35;;;;;;;4.68;1.90;;;12.90;99.90;;;;;;5092243;28;20028;-57
2023/03/13 07:06:01;;;;;;;6.53;2.50;;;12.90;99.90;;;;;;5092487;28;20044;-57
2023/03/13 07:08:27;;;;;;;5.32;2.50;;;12.90;99.90;;;;;;5091471;28;20119;-56
2023/03/13 07:10:57;;;;;;;7.68;2.45;;;13.00;99.90;;;;;;5092417;28;20028;-57
2023/03/13 07:13:23;;;;;;;6.55;2.60;;;13.00;99.90;;;;;;5092154;28;20028;-57
2023/03/13 07:15:48;;;;;;;5.75;2.25;;;13.10;99.90;;;;;;5092521;28;20123;-57
2023/03/13 07:18:14;;;;;;;7.18;2.10;;;13.20;99.90;;;;;;5091891;28;20024;-60
2023/03/13 07:20:40;;;;;;;5.53;2.03;;;13.20;99.90;;;;;;5092322;28;20536;-58
2023/03/13 07:23:06;;;;;;;7.38;2.88;;;13.30;99.90;;;;;;5073190;28;20107;-52
2023/03/13 07:25:31;;;;;;;4.80;2.17;;;13.30;99.90;;;;;;5091706;28;20032;-55
2023/03/13 07:27:59;;;;;;;5.32;1.77;;;13.40;99.90;;;;;;5091543;28;20028;-56
2023/03/13 07:30:26;;;;;;;7.50;1.90;;;13.40;99.90;;;;;;5092053;28;20032;-59
2023/03/13 07:32:51;;;;;;;6.00;1.95;;;13.50;99.90;;;;;;5092035;28;20043;-58
2023/03/13 07:35:17;;;;;;;5.55;2.13;;;13.40;99.90;;;;;;5091966;28;20040;-58
2023/03/13 07:37:43;;;;;;;5.63;1.90;;;13.40;99.90;;;;;;5090347;28;20108;-58
2023/03/13 07:40:09;;;;;;;7.38;2.42;;;13.40;99.90;;;;;;5091652;28;20024;-58
2023/03/13 07:42:38;;;;;;;6.18;2.13;;;13.50;99.90;;;;;;5091938;28;20050;-58
2023/03/13 07:45:04;;;;;;;5.07;1.92;;;13.40;99.90;;;;;;5091991;28;20457;-58
2023/03/13 07:47:30;;;;;;;5.15;1.80;;;13.40;99.90;;;;;;5091140;28;20030;-58
2023/03/13 07:49:55;;;;;;;5.50;1.75;;;13.50;99.90;;;;;;5092000;28;20036;-58
2023/03/13 07:52:21;;;;;;;5.32;2.03;;;13.40;99.90;;;;;;5087065;28;20028;-58
2023/03/13 07:54:47;;;;;;;4.63;2.22;;;13.40;99.90;;;;;;5087632;28;20028;-58
2023/03/13 07:57:13;;;;;;;6.70;2.00;;;13.40;99.90;;;;;;5087459;28;20031;-58
2023/03/13 07:59:38;;;;;;;5.00;1.83;;;13.40;99.90;;;;;;5087192;28;20035;-56
2023/03/13 08:02:04;;;;;;;9.98;2.53;;;13.30;99.90;;;;;;5091003;28;20085;-59
2023/03/13 08:04:30;;;;;;;7.63;2.33;;;13.30;99.90;;;;;;5090758;28;20032;-58
2023/03/13 08:06:56;;;;;;;5.03;2.10;;;13.40;99.90;;;;;;5085103;28;20475;-58
2023/03/13 08:09:21;;;;;;;7.00;2.00;;;13.40;99.90;;;;;;5068827;28;20080;-58
2023/03/13 08:11:47;;;;;;;9.00;2.45;;;13.40;99.90;;;;;;5069906;28;20499;-59
2023/03/13 08:14:13;;;;;;;6.93;2.38;;;13.50;99.90;;;;;;5085999;28;20024;-60
2023/03/13 08:16:39;;;;;;;9.48;2.97;;;13.50;99.90;;;;;;5087670;28;20111;-59
2023/03/13 08:19:05;;;;;;;8.95;3.15;;;13.70;99.90;;;;;;5087845;28;20716;-58
2023/03/13 08:21:33;;;;;;;11.55;2.80;;;13.70;99.90;;;;;;5068957;28;20036;-60
2023/03/13 08:24:04;;;;;;;7.90;2.42;;;13.70;99.90;;;;;;5086049;28;20039;-58
2023/03/13 08:26:31;;;;;;;11.80;3.40;;;13.80;99.90;;;;;;5087281;28;20036;-60
2023/03/13 08:29:11;;;;;;;8.65;2.63;;;13.80;99.90;;;;;;5086531;28;20399;-59
2023/03/13 08:31:46;;;;;;;12.00;4.30;;;13.80;99.90;;;;;;5069678;28;20468;-60
2023/03/13 08:34:13;;;;;;;10.38;3.05;;;13.80;99.90;;;;;;5087084;28;20424;-59
2023/03/13 08:36:39;;;;;;;9.13;3.40;;;13.90;99.90;;;;;;5087249;28;20367;-59
2023/03/13 08:39:16;;;;;;;11.43;3.17;;;13.90;99.90;;;;;;5086104;28;20032;-58
2023/03/13 08:41:42;;;;;;;11.00;3.05;;;14.00;99.90;;;;;;5069602;28;20059;-58
2023/03/13 08:44:13;;;;;;;12.43;3.90;;;14.00;99.90;;;;;;5068520;28;20167;-59
2023/03/13 08:46:42;;;;;;;12.50;3.63;;;14.10;99.90;;;;;;5087092;28;20094;-59
2023/03/13 08:49:12;;;;;;;13.48;4.13;;;14.20;99.90;;;;;;5087229;28;20043;-58
2023/03/13 08:51:39;;;;;;;15.13;4.10;;;14.10;99.90;;;;;;5080781;28;20023;-59
2023/03/13 08:54:05;;;;;;;17.17;5.13;;;14.20;99.90;;;;;;5067994;28;20614;-57
2023/03/13 08:56:31;;;;;;;10.68;3.55;;;14.10;99.90;;;;;;5086129;28;20039;-59
2023/03/13 08:58:59;;;;;;;13.68;3.45;;;14.20;99.90;;;;;;5087303;28;20036;-59
2023/03/13 09:01:28;;;;;;;14.15;4.55;;;14.20;99.90;;;;;;5086821;28;20132;-59
2023/03/13 09:03:54;;;;;;;13.38;4.43;;;14.30;99.90;;;;;;5087137;28;20128;-57
2023/03/13 09:06:20;;;;;;;11.00;3.90;;;14.30;99.90;;;;;;5086979;28;20028;-57
2023/03/13 09:08:46;;;;;;;10.45;3.47;;;14.40;99.90;;;;;;5088280;28;20032;-56
2023/03/13 09:11:14;;;;;;;7.55;2.80;;;14.40;99.90;;;;;;5089927;28;20032;-56
2023/03/13 09:13:44;;;;;;;8.07;2.40;;;14.40;99.90;;;;;;5089857;28;20117;-58
2023/03/13 09:16:18;;;;;;;12.93;3.50;;;14.50;99.90;;;;;;5089780;28;20028;-58
2023/03/13 09:18:44;;;;;;;19.92;10.07;;;14.50;99.90;;;;;;5089797;28;20050;-58
2023/03/13 09:21:19;;;;;;;10.00;4.80;;;14.50;99.90;;;;;;5089240;28;20055;-59
2023/03/13 09:23:46;;;;;;;9.30;3.65;;;14.50;99.90;;;;;;5089017;28;20032;-58
2023/03/13 09:26:12;;;;;;;12.10;5.80;;;14.70;99.90;;;;;;5089894;28;20020;-60
2023/03/13 09:28:40;;;;;;;6.13;2.42;;;14.70;99.90;;;;;;5088886;28;20052;-58
2023/03/13 09:31:11;;;;;;;7.85;2.40;;;14.70;99.90;;;;;;5089718;28;20043;-57
2023/03/13 09:33:37;;;;;;;7.13;2.40;;;14.60;99.90;;;;;;5089181;28;20042;-58
2023/03/13 09:36:04;;;;;;;8.48;2.47;;;14.60;99.90;;;;;;5071091;28;20040;-58
2023/03/13 09:38:30;;;;;;;6.30;2.00;;;14.50;99.90;;;;;;5088159;28;20372;-57
2023/03/13 09:41:12;;;;;;;7.57;2.58;;;14.50;99.90;;;;;;5089239;28;20166;-58
2023/03/13 09:44:05;;;;;;;8.55;2.33;;;14.60;99.90;;;;;;5089102;28;20222;-58
2023/03/13 09:46:46;;;;;;;7.20;2.40;;;14.50;99.90;;;;;;5089170;28;20050;-58
2023/03/13 09:49:26;;;;;;;6.28;2.42;;;14.60;99.90;;;;;;5089009;28;20046;-58
2023/03/13 09:52:10;;;;;;;7.43;2.55;;;14.60;99.90;;;;;;5089067;28;20039;-57
2023/03/13 09:54:42;;;;;;;9.00;2.72;;;14.60;99.90;;;;;;5087876;28;20085;-56
2023/03/13 09:57:17;;;;;;;6.40;2.28;;;14.70;99.90;;;;;;5087929;28;20042;-55
2023/03/13 09:59:50;;;;;;;6.75;2.28;;;14.60;99.90;;;;;;5087083;28;20044;-56
2023/03/13 10:02:29;;;;;;;7.72;2.30;;;14.60;99.90;;;;;;5089166;28;20047;-56
2023/03/13 10:05:03;;;;;;;;;;;14.60;99.90;;;;;;5089196;28;20030;-56
2023/03/13 10:07:29;;;;;;;8.23;2.40;;;14.60;99.90;;;;;;5087112;28;20064;-57
2023/03/13 10:09:55;;;;;;;10.65;4.10;;;14.90;99.90;;;;;;5089182;28;20511;-56
2023/03/13 10:12:28;;;;;;;9.63;5.05;;;15.10;99.90;;;;;;5088993;28;20135;-56
2023/03/13 10:15:27;;;;;;;7.55;4.13;;;15.30;99.90;;;;;;5089006;28;20046;-56
2023/03/13 10:17:52;;;;;;;;;;;15.50;99.90;;;;;;5089339;28;20043;-56
2023/03/13 10:20:27;;;;;;;7.80;2.50;;;15.70;99.90;;;;;;5088355;28;19908;-56
2023/03/13 10:23:06;;;;;;;5.10;2.30;;;15.80;99.90;;;;;;5087868;28;20452;-56
2023/03/13 10:25:33;;;;;;;8.68;2.80;;;15.80;99.90;;;;;;5088740;28;20032;-56
2023/03/13 10:28:00;;;;;;;6.38;2.22;;;15.70;99.90;;;;;;5088229;28;20592;-56
2023/03/13 10:30:39;;;;;;;7.80;1.98;;;15.60;99.90;;;;;;5088430;28;20024;-57
2023/03/13 10:33:10;;;;;;;6.07;2.72;;;15.40;99.90;;;;;;5088549;28;20043;-56
2023/03/13 10:35:41;;;;;;;8.70;2.50;;;15.40;99.90;;;;;;5089118;28;20043;-57
2023/03/13 10:38:18;;;;;;;7.72;3.17;;;15.50;99.90;;;;;;5087581;28;20028;-44
2023/03/13 10:41:00;;;;;;;8.05;2.65;;;15.50;99.90;;;;;;5088499;28;20047;-44
2023/03/13 10:43:28;;;;;;;8.70;3.00;;;15.70;99.90;;;;;;5088417;28;20102;-55
2023/03/13 10:45:54;;;;;;;7.00;2.63;;;15.80;99.90;;;;;;5089004;28;20024;-54
2023/03/13 10:48:25;;;;;;;7.85;3.22;;;15.90;99.90;;;;;;5088557;28;20032;-55
2023/03/13 10:50:56;;;;;;;11.15;4.82;;;16.00;99.90;;;;;;5088540;28;20028;-55
2023/03/13 10:53:28;;;;;;;6.28;2.53;;;16.10;99.90;;;;;;5087992;28;20468;-55
2023/03/13 10:56:09;;;;;;;12.43;3.80;;;16.10;99.90;;;;;;5088467;28;20039;-55
2023/03/13 10:58:44;;;;;;;4.70;2.08;;;16.10;99.90;;;;;;5088208;28;20040;-55
2023/03/13 11:01:40;;;;;;;3.85;1.70;;;16.20;99.90;;;;;;5088650;28;20032;-53
2023/03/13 11:04:38;;;;;;;6.32;1.55;;;16.10;99.90;;;;;;5088584;28;20416;-55
2023/03/13 11:07:24;;;;;;;7.10;2.40;;;16.20;99.90;;;;;;5032582;28;20777;-55
2023/03/13 11:10:17;;;;;;;10.05;2.70;;;16.30;99.90;;;;;;5088010;28;20978;-54
2023/03/13 11:12:51;;;;;;;7.28;2.42;;;16.30;99.90;;;;;;5087691;28;20067;-56
2023/03/13 11:15:24;;;;;;;5.22;2.17;;;16.30;99.90;;;;;;5088710;28;20039;-55
2023/03/13 11:18:02;;;;;;;6.95;2.38;;;16.40;99.90;;;;;;5088160;28;20036;-55
2023/03/13 11:20:32;;;;;;;4.28;1.77;;;16.30;99.90;;;;;;5070485;28;20416;-56
2023/03/13 11:23:22;;;;;;;9.07;3.47;;;16.40;99.90;;;;;;5087425;28;20115;-56
2023/03/13 11:26:00;;;;;;;9.75;5.05;;;16.40;99.90;;;;;;5088787;28;20505;-55
2023/03/13 11:28:47;;;;;;;11.90;7.25;;;16.40;99.90;;;;;;5088309;28;20075;-55
2023/03/13 11:31:21;;;;;;;7.65;3.15;;;16.50;99.90;;;;;;5088521;28;20042;-55
2023/03/13 11:34:18;;;;;;;8.45;3.78;;;16.50;99.90;;;;;;5092185;28;20054;-54
2023/03/13 11:37:01;;;;;;;7.38;2.60;;;16.70;99.90;;;;;;5091490;28;20036;-54
2023/03/13 11:39:52;;;;;;;8.38;2.72;;;16.80;99.90;;;;;;5091692;28;20508;-56
2023/03/13 11:42:49;;;;;;;5.65;2.20;;;16.80;99.90;;;;;;5092327;28;20074;-54
2023/03/13 11:45:33;;;;;;;9.68;2.95;;;16.80;99.90;;;;;;5092000;28;20058;-56
2023/03/13 11:48:20;;;;;;;3.00;1.40;;;16.80;99.90;;;;;;5091341;28;20051;-56
2023/03/13 11:51:13;;;;;;;3.28;1.17;;;16.70;99.90;;;;;;5091625;28;20028;-55
2023/03/13 11:54:02;;;;;;;5.07;1.40;;;16.70;99.90;;;;;;5091047;28;20070;-56
2023/03/13 11:56:51;;;;;;;3.90;1.50;;;16.80;99.90;;;;;;5091252;28;20037;-56
2023/03/13 11:59:48;;;;;;;2.60;0.95;;;16.80;99.90;;;;;;5091822;28;20028;-54
2023/03/13 12:02:41;;;;;;;2.75;0.88;;;16.80;99.90;;;;;;5091473;28;20035;-55
2023/03/13 12:05:16;;;;;;;5.38;1.80;;;16.90;99.90;;;;;;5091499;28;20031;-55
2023/03/13 12:08:02;;;;;;;8.40;3.10;;;17.00;99.90;;;;;;5089965;28;20028;-53
2023/03/13 12:10:33;;;;;;;6.18;2.47;;;16.90;99.90;;;;;;5091424;28;20027;-53
2023/03/13 12:13:10;;;;;;;5.32;2.70;;;16.90;99.90;;;;;;5091201;28;20039;-54
2023/03/13 12:15:40;;;;;;;6.43;2.58;;;17.00;99.90;;;;;;5091397;28;20341;-53
2023/03/13 12:18:33;;;;;;;3.20;0.80;;;17.00;99.90;;;;;;5090939;28;20126;-53
2023/03/13 12:21:28;;;;;;;3.80;0.80;;;17.00;99.90;;;;;;5076975;22;20108;-49
2023/03/13 12:24:05;;;;;;;2.72;1.05;;;16.90;99.90;;;;;;5039310;28;20102;-53
2023/03/13 12:26:41;;;;;;;2.20;0.80;;;16.80;99.90;;;;;;5050501;28;20577;-51
2023/03/13 12:29:27;;;;;;;4.13;1.00;;;16.80;99.90;;;;;;5050547;28;20420;-52
2023/03/13 12:32:11;;;;;;;7.38;1.88;;;16.80;99.90;;;;;;5064121;28;20169;-52
2023/03/13 12:34:55;;;;;;;5.00;1.50;;;16.90;99.90;;;;;;5070440;28;20048;-54
2023/03/13 12:37:51;;;;;;;3.30;1.30;;;16.90;99.90;;;;;;5069497;28;20400;-50
2023/03/13 12:40:29;;;;;;;2.05;1.00;;;16.80;99.90;;;;;;5070546;28;20535;-52
2023/03/13 12:43:17;;;;;;;2.67;0.85;;;16.80;99.90;;;;;;5069987;28;20660;-52
2023/03/13 12:45:58;;;;;;;3.97;1.42;;;16.80;99.90;;;;;;5070305;28;20025;-54
2023/03/13 12:48:43;;;;;;;2.58;1.20;;;16.70;99.90;;;;;;5051572;28;20452;-53
2023/03/13 12:51:18;;;;;;;4.05;1.50;;;16.70;99.90;;;;;;5069404;28;20105;-52
2023/03/13 12:54:03;;;;;;;2.58;1.05;;;16.80;99.90;;;;;;5069502;28;20043;-53
2023/03/13 12:56:43;;;;;;;4.30;1.30;;;16.90;99.90;;;;;;5070019;28;20032;-50
2023/03/13 12:59:32;;;;;;;2.15;1.25;;;16.90;99.90;;;;;;5070103;28;20040;-50
2023/03/13 13:01:59;;;;;;;5.00;1.55;;;17.00;99.90;;;;;;5069791;28;20033;-51
2023/03/13 13:04:29;;;;;;;3.40;1.40;;;17.10;99.90;;;;;;5069762;28;20033;-54
2023/03/13 13:06:56;;;;;;;5.88;1.73;;;17.20;99.90;;;;;;5069429;28;20060;-51
2023/03/13 13:09:38;;;;;;;4.10;1.38;;;17.30;99.90;;;;;;5069490;28;20388;-52
2023/03/13 13:12:33;;;;;;;2.47;1.00;;;17.50;99.90;;;;;;5069717;28;20477;-52
2023/03/13 13:15:18;;;;;;;1.80;1.00;;;17.70;99.90;;;;;;5056880;28;20105;-50